createdAt,value
2019-01-24T00:00:45.006Z,0
2019-01-24T00:01:45.568Z,0
2019-01-24T00:02:46.131Z,0
2019-01-24T00:03:46.698Z,0
2019-01-24T00:04:47.259Z,0
2019-01-24T00:05:47.824Z,0
2019-01-24T00:06:48.386Z,0
2019-01-24T00:07:48.960Z,0
2019-01-24T00:08:49.523Z,0
2019-01-24T00:09:50.084Z,0
2019-01-24T00:10:50.659Z,0
2019-01-24T00:11:51.222Z,0
2019-01-24T00:12:51.784Z,0
2019-01-24T00:13:52.346Z,0
2019-01-24T00:14:52.910Z,0
2019-01-24T00:15:53.484Z,0
2019-01-24T00:16:54.056Z,0
2019-01-24T00:17:54.617Z,0
2019-01-24T00:18:55.180Z,0
2019-01-24T00:19:55.744Z,0
2019-01-24T00:20:56.304Z,0
2019-01-24T00:21:56.869Z,0
2019-01-24T00:22:57.433Z,0
2019-01-24T00:23:57.999Z,0
2019-01-24T00:24:58.573Z,0
2019-01-24T00:25:59.237Z,0
2019-01-24T00:26:59.812Z,0
2019-01-24T00:28:00.374Z,0
2019-01-24T00:29:00.939Z,0
2019-01-24T00:30:01.515Z,0
2019-01-24T00:31:02.329Z,0
2019-01-24T00:32:02.891Z,0
2019-01-24T00:33:03.456Z,0
2019-01-24T00:34:04.020Z,0
2019-01-24T00:35:04.581Z,0
2019-01-24T00:36:05.145Z,0
2019-01-24T00:37:05.710Z,0
2019-01-24T00:38:06.274Z,0
2019-01-24T00:39:06.836Z,0
2019-01-24T00:40:07.397Z,0
2019-01-24T00:41:07.959Z,0
2019-01-24T00:42:08.521Z,0
2019-01-24T00:43:09.083Z,0
2019-01-24T00:44:09.645Z,0
2019-01-24T00:45:10.220Z,0
2019-01-24T00:46:10.784Z,0
2019-01-24T00:47:11.349Z,0
2019-01-24T00:48:11.920Z,0
2019-01-24T00:49:12.485Z,0
2019-01-24T00:50:13.058Z,0
2019-01-24T00:51:13.621Z,0
2019-01-24T00:52:14.184Z,0
2019-01-24T00:53:14.746Z,0
2019-01-24T00:54:15.309Z,0
2019-01-24T00:55:15.875Z,0
2019-01-24T00:56:16.438Z,0
2019-01-24T00:57:17.012Z,0
2019-01-24T00:58:17.574Z,0
2019-01-24T00:59:18.137Z,0
2019-01-24T01:00:18.700Z,0
2019-01-24T01:01:19.264Z,0
2019-01-24T01:02:19.826Z,0
2019-01-24T01:03:20.392Z,0
2019-01-24T01:04:20.967Z,0
2019-01-24T01:05:21.528Z,0
2019-01-24T01:06:22.088Z,0
2019-01-24T01:07:22.651Z,0
2019-01-24T01:08:23.214Z,0
2019-01-24T01:09:23.775Z,0
2019-01-24T01:10:24.339Z,0
2019-01-24T01:11:24.903Z,0
2019-01-24T01:12:25.477Z,0
2019-01-24T01:13:26.038Z,0
2019-01-24T01:14:26.601Z,0
2019-01-24T01:15:27.176Z,0
2019-01-24T01:16:27.725Z,0
2019-01-24T01:17:28.291Z,0
2019-01-24T01:18:28.851Z,0
2019-01-24T01:19:29.416Z,0
2019-01-24T01:20:29.978Z,0
2019-01-24T01:21:30.643Z,0
2019-01-24T01:22:31.206Z,0
2019-01-24T01:23:31.781Z,0
2019-01-24T01:24:32.343Z,0
2019-01-24T01:25:32.922Z,0
2019-01-24T01:26:33.482Z,0
2019-01-24T01:27:34.045Z,0
2019-01-24T01:28:34.607Z,0
2019-01-24T01:29:35.170Z,0
2019-01-24T01:30:35.742Z,0
2019-01-24T01:31:36.306Z,0
2019-01-24T01:32:36.871Z,0
2019-01-24T01:33:37.431Z,0
2019-01-24T01:34:37.996Z,0
2019-01-24T01:35:38.559Z,0
2019-01-24T01:36:39.286Z,0
2019-01-24T01:37:39.848Z,0
2019-01-24T01:38:40.413Z,0
2019-01-24T01:39:40.976Z,0
2019-01-24T01:40:41.539Z,0
2019-01-24T01:41:42.102Z,0
2019-01-24T01:42:42.665Z,0
2019-01-24T01:43:43.230Z,0
2019-01-24T01:44:43.790Z,0
2019-01-24T01:45:44.366Z,0
2019-01-24T01:46:44.929Z,0
2019-01-24T01:47:45.491Z,0
2019-01-24T01:48:46.052Z,0
2019-01-24T01:49:46.616Z,0
2019-01-24T01:50:47.193Z,0
2019-01-24T01:51:47.767Z,0
2019-01-24T01:52:48.328Z,0
2019-01-24T01:53:48.892Z,0
2019-01-24T01:54:49.456Z,0
2019-01-24T01:55:50.021Z,0
2019-01-24T01:56:50.596Z,0
2019-01-24T01:57:51.162Z,0
2019-01-24T01:58:51.731Z,0
2019-01-24T01:59:52.300Z,0
2019-01-24T02:00:52.876Z,0
2019-01-24T02:01:53.439Z,0
2019-01-24T02:02:54.002Z,0
2019-01-24T02:03:54.567Z,0
2019-01-24T02:04:55.141Z,0
2019-01-24T02:05:55.703Z,0
2019-01-24T02:06:56.266Z,0
2019-01-24T02:07:56.829Z,0
2019-01-24T02:08:57.393Z,0
2019-01-24T02:09:57.957Z,0
2019-01-24T02:10:58.518Z,0
2019-01-24T02:11:59.079Z,0
2019-01-24T02:12:59.643Z,0
2019-01-24T02:14:00.205Z,0
2019-01-24T02:15:00.768Z,0
2019-01-24T02:16:01.331Z,0
2019-01-24T02:17:02.000Z,0
2019-01-24T02:18:02.570Z,0
2019-01-24T02:19:03.133Z,0
2019-01-24T02:20:03.696Z,0
2019-01-24T02:21:04.259Z,0
2019-01-24T02:22:04.822Z,0
2019-01-24T02:23:05.385Z,0
2019-01-24T02:24:05.948Z,0
2019-01-24T02:25:06.512Z,0
2019-01-24T02:26:07.072Z,0
2019-01-24T02:27:07.634Z,0
2019-01-24T02:28:08.197Z,0
2019-01-24T02:29:08.758Z,0
2019-01-24T02:30:09.323Z,0
2019-01-24T02:31:09.885Z,0
2019-01-24T02:32:10.450Z,0
2019-01-24T02:33:11.012Z,0
2019-01-24T02:34:11.574Z,0
2019-01-24T02:35:12.137Z,0
2019-01-24T02:36:12.702Z,0
2019-01-24T02:37:13.262Z,0
2019-01-24T02:38:13.839Z,0
2019-01-24T02:39:14.402Z,0
2019-01-24T02:40:14.965Z,0
2019-01-24T02:41:15.529Z,0
2019-01-24T02:42:16.104Z,0
2019-01-24T02:43:16.667Z,0
2019-01-24T02:44:17.230Z,0
2019-01-24T02:45:17.808Z,0
2019-01-24T02:46:18.380Z,0
2019-01-24T02:47:18.955Z,0
2019-01-24T02:48:19.518Z,0
2019-01-24T02:49:20.081Z,0
2019-01-24T02:50:20.656Z,0
2019-01-24T02:51:21.209Z,0
2019-01-24T02:52:21.770Z,0
2019-01-24T02:53:22.331Z,0
2019-01-24T02:54:22.896Z,0
2019-01-24T02:55:23.456Z,0
2019-01-24T02:56:24.018Z,0
2019-01-24T02:57:24.679Z,0
2019-01-24T02:58:25.241Z,0
2019-01-24T02:59:25.803Z,0
2019-01-24T03:00:26.368Z,0
2019-01-24T03:01:26.938Z,0
2019-01-24T03:02:27.500Z,0
2019-01-24T03:03:28.063Z,0
2019-01-24T03:04:28.628Z,0
2019-01-24T03:05:29.190Z,0
2019-01-24T03:06:29.753Z,0
2019-01-24T03:07:30.317Z,0
2019-01-24T03:08:30.880Z,0
2019-01-24T03:09:31.440Z,0
2019-01-24T03:10:32.004Z,0
2019-01-24T03:11:32.566Z,0
2019-01-24T03:12:33.231Z,0
2019-01-24T03:13:33.793Z,0
2019-01-24T03:14:34.355Z,0
2019-01-24T03:15:34.917Z,0
2019-01-24T03:16:35.477Z,0
2019-01-24T03:17:36.053Z,0
2019-01-24T03:18:36.603Z,0
2019-01-24T03:19:37.166Z,0
2019-01-24T03:20:37.726Z,0
2019-01-24T03:21:38.289Z,0
2019-01-24T03:22:38.850Z,0
2019-01-24T03:23:39.414Z,0
2019-01-24T03:24:39.973Z,0
2019-01-24T03:25:40.543Z,0
2019-01-24T03:26:41.109Z,0
2019-01-24T03:27:41.672Z,0
2019-01-24T03:28:42.235Z,0
2019-01-24T03:29:42.798Z,0
2019-01-24T03:30:43.373Z,0
2019-01-24T03:31:43.947Z,0
2019-01-24T03:32:44.607Z,0
2019-01-24T03:33:45.168Z,0
2019-01-24T03:34:45.731Z,0
2019-01-24T03:35:46.291Z,0
2019-01-24T03:36:46.858Z,0
2019-01-24T03:37:47.418Z,0
2019-01-24T03:38:47.980Z,0
2019-01-24T03:39:48.541Z,0
2019-01-24T03:40:49.108Z,0
2019-01-24T03:41:49.678Z,0
2019-01-24T03:42:50.243Z,0
2019-01-24T03:43:50.805Z,0
2019-01-24T03:44:51.366Z,0
2019-01-24T03:45:51.930Z,0
2019-01-24T03:46:52.490Z,0
2019-01-24T03:47:53.053Z,0
2019-01-24T03:48:53.629Z,0
2019-01-24T03:49:54.188Z,0
2019-01-24T03:50:54.763Z,0
2019-01-24T03:51:55.323Z,0
2019-01-24T03:52:55.885Z,0
2019-01-24T03:53:56.447Z,0
2019-01-24T03:54:57.008Z,0
2019-01-24T03:55:57.569Z,0
2019-01-24T03:56:58.131Z,0
2019-01-24T03:57:58.690Z,0
2019-01-24T03:58:59.253Z,0
2019-01-24T03:59:59.814Z,0
2019-01-24T04:01:00.375Z,0
2019-01-24T04:02:00.941Z,0
2019-01-24T04:03:01.501Z,0
2019-01-24T04:04:02.059Z,0
2019-01-24T04:05:02.624Z,0
2019-01-24T04:06:03.193Z,0
2019-01-24T04:07:03.754Z,0
2019-01-24T04:08:04.319Z,0
2019-01-24T04:09:04.880Z,0
2019-01-24T04:10:05.443Z,0
2019-01-24T04:11:06.017Z,0
2019-01-24T04:12:08.381Z,0
2019-01-24T04:13:07.261Z,0
2019-01-24T04:14:07.821Z,0
2019-01-24T04:15:08.383Z,0
2019-01-24T04:16:08.944Z,0
2019-01-24T04:17:09.504Z,0
2019-01-24T04:18:10.065Z,0
2019-01-24T04:19:10.627Z,0
2019-01-24T04:20:11.201Z,0
2019-01-24T04:21:11.764Z,0
2019-01-24T04:22:12.326Z,0
2019-01-24T04:23:12.899Z,0
2019-01-24T04:24:13.463Z,0
2019-01-24T04:25:14.028Z,0
2019-01-24T04:26:14.598Z,0
2019-01-24T04:27:15.173Z,0
2019-01-24T04:28:15.732Z,0
2019-01-24T04:29:16.297Z,0
2019-01-24T04:30:16.857Z,0
2019-01-24T04:31:17.425Z,0
2019-01-24T04:32:17.996Z,0
2019-01-24T04:33:18.567Z,0
2019-01-24T04:34:19.131Z,0
2019-01-24T04:35:20.348Z,0
2019-01-24T04:36:20.965Z,0
2019-01-24T04:37:21.515Z,0
2019-01-24T04:38:22.180Z,0
2019-01-24T04:39:22.749Z,0
2019-01-24T04:40:23.302Z,0
2019-01-24T04:41:23.862Z,0
2019-01-24T04:42:24.425Z,0
2019-01-24T04:43:24.987Z,0
2019-01-24T04:44:25.549Z,0
2019-01-24T04:45:26.111Z,0
2019-01-24T04:46:26.674Z,0
2019-01-24T04:47:27.234Z,0
2019-01-24T04:48:27.798Z,0
2019-01-24T04:49:28.361Z,0
2019-01-24T04:50:28.923Z,0
2019-01-24T04:51:29.481Z,0
2019-01-24T04:52:30.042Z,0
2019-01-24T04:53:30.602Z,0
2019-01-24T04:54:31.164Z,0
2019-01-24T04:55:31.726Z,0
2019-01-24T04:56:32.300Z,0
2019-01-24T04:57:32.863Z,0
2019-01-24T04:58:33.536Z,0
2019-01-24T04:59:34.100Z,0
2019-01-24T05:00:34.672Z,0
2019-01-24T05:01:35.235Z,0
2019-01-24T05:02:35.798Z,0
2019-01-24T05:03:36.361Z,0
2019-01-24T05:04:36.932Z,0
2019-01-24T05:05:37.494Z,0
2019-01-24T05:06:38.069Z,0
2019-01-24T05:07:38.630Z,0
2019-01-24T05:08:39.241Z,0
2019-01-24T05:09:39.810Z,0
2019-01-24T05:10:40.382Z,0
2019-01-24T05:11:40.939Z,0
2019-01-24T05:12:41.503Z,0
2019-01-24T05:13:42.063Z,0
2019-01-24T05:14:42.624Z,0
2019-01-24T05:15:43.185Z,0
2019-01-24T05:16:43.748Z,0
2019-01-24T05:17:44.309Z,0
2019-01-24T05:18:44.884Z,0
2019-01-24T05:19:45.453Z,0
2019-01-24T05:20:46.015Z,0
2019-01-24T05:21:46.576Z,0
2019-01-24T05:22:47.137Z,0
2019-01-24T05:23:47.698Z,0
2019-01-24T05:24:48.260Z,0
2019-01-24T05:25:48.825Z,0
2019-01-24T05:26:49.383Z,0
2019-01-24T05:27:49.944Z,0
2019-01-24T05:28:50.518Z,0
2019-01-24T05:29:51.082Z,0
2019-01-24T05:30:51.642Z,0
2019-01-24T05:31:52.205Z,0
2019-01-24T05:32:52.767Z,0
2019-01-24T05:33:53.329Z,0
2019-01-24T05:34:53.889Z,0
2019-01-24T05:35:54.450Z,0
2019-01-24T05:36:55.013Z,0
2019-01-24T05:37:55.574Z,0
2019-01-24T05:38:56.136Z,0
2019-01-24T05:39:56.709Z,0
2019-01-24T05:40:57.275Z,0
2019-01-24T05:41:57.833Z,0
2019-01-24T05:42:58.397Z,0
2019-01-24T05:43:58.958Z,0
2019-01-24T05:44:59.527Z,0
2019-01-24T05:46:00.086Z,0
2019-01-24T05:47:00.648Z,0
2019-01-24T05:48:01.218Z,0
2019-01-24T05:49:01.780Z,0
2019-01-24T05:50:02.342Z,0
2019-01-24T05:51:02.905Z,0
2019-01-24T05:52:03.505Z,0
2019-01-24T05:53:04.041Z,0
2019-01-24T05:54:04.765Z,0
2019-01-24T05:55:05.336Z,0
2019-01-24T05:56:05.906Z,0
2019-01-24T05:57:06.475Z,0
2019-01-24T05:58:07.035Z,0
2019-01-24T05:59:07.597Z,0
2019-01-24T06:00:08.159Z,0
2019-01-24T06:01:08.720Z,0
2019-01-24T06:02:09.282Z,0
2019-01-24T06:03:09.844Z,0
2019-01-24T06:04:10.405Z,0
2019-01-24T06:05:10.969Z,0
2019-01-24T06:06:11.528Z,0
2019-01-24T06:07:12.090Z,0
2019-01-24T06:08:12.654Z,0
2019-01-24T06:09:13.213Z,0
2019-01-24T06:10:13.774Z,0
2019-01-24T06:11:14.335Z,0
2019-01-24T06:12:14.896Z,0
2019-01-24T06:13:15.460Z,0
2019-01-24T06:14:16.021Z,0
2019-01-24T06:15:16.582Z,0
2019-01-24T06:16:17.144Z,0
2019-01-24T06:17:17.705Z,0
2019-01-24T06:18:18.274Z,0
2019-01-24T06:19:18.828Z,0
2019-01-24T06:20:19.388Z,0
2019-01-24T06:21:19.950Z,0
2019-01-24T06:22:20.514Z,0
2019-01-24T06:23:21.076Z,0
2019-01-24T06:24:21.634Z,0
2019-01-24T06:25:22.213Z,0
2019-01-24T06:26:22.778Z,0
2019-01-24T06:27:23.334Z,0
2019-01-24T06:28:23.898Z,0
2019-01-24T06:29:24.456Z,0
2019-01-24T06:30:25.020Z,0
2019-01-24T06:31:25.595Z,0
2019-01-24T06:32:26.157Z,0
2019-01-24T06:33:26.722Z,0
2019-01-24T06:34:27.283Z,0
2019-01-24T06:35:27.846Z,0
2019-01-24T06:36:28.407Z,0
2019-01-24T06:37:28.982Z,0
2019-01-24T06:38:29.544Z,0
2019-01-24T06:39:30.107Z,0
2019-01-24T06:40:30.671Z,0
2019-01-24T06:41:31.232Z,0
2019-01-24T06:42:31.800Z,0
2019-01-24T06:43:32.357Z,0
2019-01-24T06:44:32.920Z,0
2019-01-24T06:45:33.480Z,0
2019-01-24T06:46:34.043Z,0
2019-01-24T06:47:34.605Z,0
2019-01-24T06:48:35.166Z,0
2019-01-24T06:49:35.727Z,0
2019-01-24T06:50:36.290Z,0
2019-01-24T06:51:36.852Z,0
2019-01-24T06:52:37.414Z,0
2019-01-24T06:53:37.975Z,0
2019-01-24T06:54:38.788Z,0
2019-01-24T06:55:39.349Z,0
2019-01-24T06:56:39.920Z,0
2019-01-24T06:57:40.480Z,0
2019-01-24T06:58:41.043Z,0
2019-01-24T06:59:41.617Z,0
2019-01-24T07:00:42.178Z,0
2019-01-24T07:01:42.742Z,0
2019-01-24T07:02:43.304Z,0
2019-01-24T07:03:43.866Z,4
2019-01-24T07:04:44.427Z,0
2019-01-24T07:05:44.990Z,0
2019-01-24T07:06:45.551Z,0
2019-01-24T07:07:46.120Z,4
2019-01-24T07:08:46.674Z,4
2019-01-24T07:09:47.335Z,0
2019-01-24T07:10:47.899Z,0
2019-01-24T07:11:48.461Z,4
2019-01-24T07:12:49.024Z,4
2019-01-24T07:13:49.600Z,0
2019-01-24T07:14:50.162Z,4
2019-01-24T07:15:50.726Z,4
2019-01-24T07:16:51.287Z,4
2019-01-24T07:17:51.853Z,4
2019-01-24T07:18:53.786Z,8
2019-01-24T07:19:53.969Z,4
2019-01-24T07:20:54.533Z,8
2019-01-24T07:21:55.108Z,8
2019-01-24T07:22:55.681Z,8
2019-01-24T07:23:56.244Z,8
2019-01-24T07:24:56.808Z,12
2019-01-24T07:25:57.371Z,8
2019-01-24T07:26:57.933Z,12
2019-01-24T07:27:58.507Z,12
2019-01-24T07:28:59.071Z,12
2019-01-24T07:29:59.634Z,12
2019-01-24T07:31:00.198Z,12
2019-01-24T07:32:00.763Z,16
2019-01-24T07:33:01.322Z,16
2019-01-24T07:34:01.884Z,16
2019-01-24T07:35:02.448Z,16
2019-01-24T07:36:03.011Z,20
2019-01-24T07:37:03.573Z,20
2019-01-24T07:38:04.137Z,20
2019-01-24T07:39:04.700Z,24
2019-01-24T07:40:05.264Z,24
2019-01-24T07:41:05.827Z,24
2019-01-24T07:42:06.392Z,28
2019-01-24T07:43:06.955Z,28
2019-01-24T07:44:07.520Z,28
2019-01-24T07:45:08.084Z,28
2019-01-24T07:46:08.646Z,32
2019-01-24T07:47:09.208Z,32
2019-01-24T07:48:09.809Z,32
2019-01-24T07:49:10.335Z,36
2019-01-24T07:50:10.899Z,36
2019-01-24T07:51:11.469Z,40
2019-01-24T07:52:12.038Z,40
2019-01-24T07:53:12.600Z,40
2019-01-24T07:54:13.165Z,40
2019-01-24T07:55:13.729Z,40
2019-01-24T07:56:14.317Z,44
2019-01-24T07:57:14.870Z,44
2019-01-24T07:58:15.431Z,48
2019-01-24T07:59:16.007Z,52
2019-01-24T08:00:16.570Z,52
2019-01-24T08:01:17.135Z,56
2019-01-24T08:02:17.693Z,56
2019-01-24T08:03:18.256Z,56
2019-01-24T08:04:18.818Z,56
2019-01-24T08:05:19.381Z,60
2019-01-24T08:06:19.944Z,60
2019-01-24T08:07:20.507Z,60
2019-01-24T08:08:21.069Z,60
2019-01-24T08:09:21.634Z,64
2019-01-24T08:10:22.198Z,68
2019-01-24T08:11:22.762Z,72
2019-01-24T08:12:23.335Z,72
2019-01-24T08:13:23.897Z,68
2019-01-24T08:14:24.462Z,72
2019-01-24T08:15:25.024Z,68
2019-01-24T08:16:25.598Z,72
2019-01-24T08:17:26.161Z,72
2019-01-24T08:18:26.723Z,72
2019-01-24T08:19:27.287Z,76
2019-01-24T08:20:27.850Z,76
2019-01-24T08:21:28.412Z,84
2019-01-24T08:22:28.977Z,84
2019-01-24T08:23:29.540Z,88
2019-01-24T08:24:30.105Z,92
2019-01-24T08:25:30.680Z,92
2019-01-24T08:26:31.253Z,88
2019-01-24T08:27:31.816Z,92
2019-01-24T08:28:32.379Z,92
2019-01-24T08:29:32.941Z,92
2019-01-24T08:30:33.956Z,96
2019-01-24T08:31:34.518Z,100
2019-01-24T08:32:35.087Z,104
2019-01-24T08:33:35.657Z,108
2019-01-24T08:34:36.220Z,108
2019-01-24T08:35:36.784Z,112
2019-01-24T08:36:37.348Z,112
2019-01-24T08:37:37.914Z,116
2019-01-24T08:38:38.479Z,116
2019-01-24T08:39:39.043Z,116
2019-01-24T08:40:39.609Z,120
2019-01-24T08:41:40.178Z,120
2019-01-24T08:42:40.737Z,116
2019-01-24T08:43:41.302Z,112
2019-01-24T08:44:41.879Z,112
2019-01-24T08:45:42.543Z,116
2019-01-24T08:46:43.107Z,116
2019-01-24T08:47:43.670Z,116
2019-01-24T08:48:44.233Z,120
2019-01-24T08:49:44.798Z,116
2019-01-24T08:50:45.364Z,116
2019-01-24T08:51:45.928Z,120
2019-01-24T08:52:46.492Z,124
2019-01-24T08:53:47.057Z,124
2019-01-24T08:54:47.621Z,124
2019-01-24T08:55:48.184Z,124
2019-01-24T08:56:48.747Z,128
2019-01-24T08:57:49.311Z,124
2019-01-24T08:58:49.877Z,128
2019-01-24T08:59:50.443Z,128
2019-01-24T09:00:51.007Z,132
2019-01-24T09:01:51.583Z,132
2019-01-24T09:02:52.148Z,136
2019-01-24T09:03:52.712Z,136
2019-01-24T09:04:53.278Z,140
2019-01-24T09:05:53.842Z,144
2019-01-24T09:06:54.406Z,144
2019-01-24T09:07:54.969Z,152
2019-01-24T09:08:55.533Z,152
2019-01-24T09:09:56.098Z,160
2019-01-24T09:10:56.765Z,168
2019-01-24T09:11:57.331Z,172
2019-01-24T09:12:57.894Z,172
2019-01-24T09:13:58.460Z,172
2019-01-24T09:14:59.025Z,172
2019-01-24T09:15:59.589Z,172
2019-01-24T09:17:00.151Z,176
2019-01-24T09:18:00.726Z,180
2019-01-24T09:19:01.294Z,184
2019-01-24T09:20:01.871Z,188
2019-01-24T09:21:02.430Z,188
2019-01-24T09:22:02.998Z,192
2019-01-24T09:23:03.559Z,200
2019-01-24T09:24:04.124Z,204
2019-01-24T09:25:04.700Z,208
2019-01-24T09:26:05.264Z,212
2019-01-24T09:27:05.828Z,216
2019-01-24T09:28:06.392Z,224
2019-01-24T09:29:06.956Z,228
2019-01-24T09:30:07.533Z,236
2019-01-24T09:31:08.099Z,244
2019-01-24T09:32:08.662Z,256
2019-01-24T09:33:09.226Z,260
2019-01-24T09:34:09.808Z,264
2019-01-24T09:35:10.370Z,272
2019-01-24T09:36:10.935Z,272
2019-01-24T09:37:11.503Z,268
2019-01-24T09:38:12.069Z,272
2019-01-24T09:39:12.633Z,272
2019-01-24T09:40:13.201Z,280
2019-01-24T09:41:13.764Z,288
2019-01-24T09:42:14.688Z,288
2019-01-24T09:43:15.217Z,288
2019-01-24T09:44:15.785Z,292
2019-01-24T09:45:16.350Z,292
2019-01-24T09:46:16.915Z,296
2019-01-24T09:47:17.482Z,300
2019-01-24T09:48:18.048Z,304
2019-01-24T09:49:18.615Z,308
2019-01-24T09:50:19.180Z,312
2019-01-24T09:51:19.744Z,312
2019-01-24T09:52:20.311Z,312
2019-01-24T09:53:20.877Z,312
2019-01-24T09:54:21.445Z,308
2019-01-24T09:55:22.014Z,308
2019-01-24T09:56:22.587Z,308
2019-01-24T09:57:23.164Z,308
2019-01-24T09:58:23.731Z,308
2019-01-24T09:59:24.296Z,312
2019-01-24T10:00:24.865Z,320
2019-01-24T10:01:25.429Z,320
2019-01-24T10:02:26.005Z,324
2019-01-24T10:03:26.559Z,324
2019-01-24T10:04:27.124Z,328
2019-01-24T10:05:27.707Z,324
2019-01-24T10:06:28.270Z,328
2019-01-24T10:07:28.847Z,332
2019-01-24T10:08:29.411Z,340
2019-01-24T10:09:29.988Z,344
2019-01-24T10:10:30.555Z,336
2019-01-24T10:11:31.121Z,332
2019-01-24T10:12:31.687Z,336
2019-01-24T10:13:32.252Z,340
2019-01-24T10:14:32.829Z,348
2019-01-24T10:15:33.393Z,352
2019-01-24T10:16:33.961Z,364
2019-01-24T10:17:34.525Z,364
2019-01-24T10:18:35.092Z,364
2019-01-24T10:19:35.657Z,356
2019-01-24T10:20:36.222Z,356
2019-01-24T10:21:36.801Z,356
2019-01-24T10:22:37.365Z,360
2019-01-24T10:23:37.933Z,356
2019-01-24T10:24:38.498Z,360
2019-01-24T10:25:39.063Z,364
2019-01-24T10:26:39.632Z,372
2019-01-24T10:27:40.195Z,380
2019-01-24T10:28:40.761Z,396
2019-01-24T10:29:41.327Z,408
2019-01-24T10:30:43.152Z,420
2019-01-24T10:31:42.566Z,432
2019-01-24T10:32:43.137Z,440
2019-01-24T10:33:43.720Z,444
2019-01-24T10:34:44.288Z,452
2019-01-24T10:35:44.852Z,460
2019-01-24T10:36:45.420Z,464
2019-01-24T10:37:45.988Z,468
2019-01-24T10:38:46.551Z,464
2019-01-24T10:39:47.129Z,468
2019-01-24T10:40:47.694Z,468
2019-01-24T10:41:48.259Z,472
2019-01-24T10:42:48.824Z,480
2019-01-24T10:43:49.391Z,480
2019-01-24T10:44:49.958Z,480
2019-01-24T10:45:50.524Z,484
2019-01-24T10:46:52.546Z,484
2019-01-24T10:47:51.667Z,484
2019-01-24T10:48:52.228Z,484
2019-01-24T10:49:52.796Z,476
2019-01-24T10:50:53.360Z,476
2019-01-24T10:51:54.176Z,476
2019-01-24T10:52:54.740Z,476
2019-01-24T10:53:55.305Z,468
2019-01-24T10:54:55.873Z,468
2019-01-24T10:55:56.441Z,464
2019-01-24T10:56:57.020Z,464
2019-01-24T10:57:57.571Z,456
2019-01-24T10:58:58.136Z,452
2019-01-24T10:59:58.706Z,452
2019-01-24T11:00:59.271Z,452
2019-01-24T11:01:59.838Z,456
2019-01-24T11:03:00.408Z,456
2019-01-24T11:04:00.972Z,460
2019-01-24T11:05:01.535Z,464
2019-01-24T11:06:02.103Z,464
2019-01-24T11:07:02.669Z,472
2019-01-24T11:08:03.241Z,476
2019-01-24T11:09:03.802Z,480
2019-01-24T11:10:04.415Z,476
2019-01-24T11:11:04.950Z,468
2019-01-24T11:12:05.513Z,460
2019-01-24T11:13:06.081Z,452
2019-01-24T11:14:06.661Z,444
2019-01-24T11:15:07.231Z,432
2019-01-24T11:16:07.795Z,428
2019-01-24T11:17:08.375Z,416
2019-01-24T11:18:08.943Z,412
2019-01-24T11:19:09.507Z,404
2019-01-24T11:20:10.075Z,404
2019-01-24T11:21:10.642Z,404
2019-01-24T11:22:11.210Z,404
2019-01-24T11:23:11.776Z,404
2019-01-24T11:24:12.343Z,404
2019-01-24T11:25:12.911Z,396
2019-01-24T11:26:13.856Z,396
2019-01-24T11:27:14.371Z,396
2019-01-24T11:28:14.936Z,400
2019-01-24T11:29:15.504Z,400
2019-01-24T11:30:16.072Z,396
2019-01-24T11:31:16.638Z,392
2019-01-24T11:32:17.214Z,392
2019-01-24T11:33:17.774Z,392
2019-01-24T11:34:18.341Z,392
2019-01-24T11:35:18.945Z,388
2019-01-24T11:36:19.473Z,384
2019-01-24T11:37:20.040Z,384
2019-01-24T11:38:20.606Z,392
2019-01-24T11:39:21.173Z,396
2019-01-24T11:40:21.740Z,396
2019-01-24T11:41:22.319Z,400
2019-01-24T11:42:22.885Z,400
2019-01-24T11:43:23.453Z,396
2019-01-24T11:44:24.021Z,392
2019-01-24T11:45:24.587Z,392
2019-01-24T11:46:25.153Z,392
2019-01-24T11:47:25.721Z,396
2019-01-24T11:48:26.287Z,392
2019-01-24T11:49:26.867Z,384
2019-01-24T11:50:27.435Z,380
2019-01-24T11:51:28.014Z,376
2019-01-24T11:52:28.587Z,372
2019-01-24T11:53:29.150Z,376
2019-01-24T11:54:29.716Z,380
2019-01-24T11:55:30.284Z,384
2019-01-24T11:56:30.849Z,384
2019-01-24T11:57:31.417Z,392
2019-01-24T11:58:31.982Z,400
2019-01-24T11:59:32.547Z,408
2019-01-24T12:00:33.119Z,416
2019-01-24T12:01:33.691Z,428
2019-01-24T12:02:39.725Z,428
2019-01-24T12:03:34.847Z,428
2019-01-24T12:04:35.416Z,436
2019-01-24T12:05:35.981Z,440
2019-01-24T12:06:36.551Z,444
2019-01-24T12:07:37.122Z,448
2019-01-24T12:08:37.694Z,452
2019-01-24T12:09:38.262Z,452
2019-01-24T12:10:38.831Z,448
2019-01-24T12:11:39.399Z,444
2019-01-24T12:12:39.964Z,444
2019-01-24T12:13:40.532Z,440
2019-01-24T12:14:41.100Z,440
2019-01-24T12:15:41.666Z,444
2019-01-24T12:16:42.248Z,452
2019-01-24T12:17:42.811Z,456
2019-01-24T12:18:43.378Z,468
2019-01-24T12:19:43.948Z,476
2019-01-24T12:20:44.512Z,476
2019-01-24T12:21:45.080Z,480
2019-01-24T12:22:45.647Z,480
2019-01-24T12:23:46.212Z,480
2019-01-24T12:24:46.789Z,480
2019-01-24T12:25:47.347Z,480
2019-01-24T12:26:47.916Z,476
2019-01-24T12:27:48.582Z,484
2019-01-24T12:28:49.148Z,488
2019-01-24T12:29:49.715Z,492
2019-01-24T12:30:50.283Z,500
2019-01-24T12:31:50.847Z,512
2019-01-24T12:32:51.416Z,520
2019-01-24T12:33:51.982Z,524
2019-01-24T12:34:52.550Z,524
2019-01-24T12:35:53.116Z,524
2019-01-24T12:36:53.683Z,520
2019-01-24T12:37:54.254Z,520
2019-01-24T12:38:54.817Z,512
2019-01-24T12:39:55.517Z,500
2019-01-24T12:40:56.017Z,496
2019-01-24T12:41:56.584Z,500
2019-01-24T12:42:57.152Z,516
2019-01-24T12:43:57.718Z,524
2019-01-24T12:44:58.288Z,532
2019-01-24T12:45:58.852Z,540
2019-01-24T12:46:59.419Z,540
2019-01-24T12:47:59.991Z,524
2019-01-24T12:49:00.555Z,512
2019-01-24T12:50:01.120Z,504
2019-01-24T12:51:01.686Z,504
2019-01-24T12:52:02.252Z,504
2019-01-24T12:53:02.819Z,512
2019-01-24T12:54:03.398Z,512
2019-01-24T12:55:03.966Z,516
2019-01-24T12:56:04.532Z,516
2019-01-24T12:57:05.100Z,508
2019-01-24T12:58:05.668Z,492
2019-01-24T12:59:06.234Z,484
2019-01-24T13:00:06.801Z,468
2019-01-24T13:01:07.372Z,460
2019-01-24T13:02:07.935Z,456
2019-01-24T13:03:08.504Z,452
2019-01-24T13:04:09.070Z,444
2019-01-24T13:05:09.635Z,432
2019-01-24T13:06:10.203Z,420
2019-01-24T13:07:10.769Z,412
2019-01-24T13:08:11.338Z,400
2019-01-24T13:09:11.904Z,400
2019-01-24T13:10:12.468Z,400
2019-01-24T13:11:13.036Z,404
2019-01-24T13:12:13.602Z,404
2019-01-24T13:13:14.431Z,404
2019-01-24T13:14:14.999Z,400
2019-01-24T13:15:15.568Z,400
2019-01-24T13:16:16.134Z,400
2019-01-24T13:17:16.700Z,400
2019-01-24T13:18:17.266Z,396
2019-01-24T13:19:17.834Z,388
2019-01-24T13:20:18.400Z,384
2019-01-24T13:21:18.968Z,380
2019-01-24T13:22:19.535Z,376
2019-01-24T13:23:20.102Z,372
2019-01-24T13:24:20.678Z,364
2019-01-24T13:25:21.244Z,364
2019-01-24T13:26:21.812Z,360
2019-01-24T13:27:22.380Z,356
2019-01-24T13:28:22.947Z,356
2019-01-24T13:29:23.511Z,352
2019-01-24T13:30:24.080Z,348
2019-01-24T13:31:24.659Z,340
2019-01-24T13:32:25.225Z,336
2019-01-24T13:33:26.045Z,332
2019-01-24T13:34:26.613Z,332
2019-01-24T13:35:27.180Z,332
2019-01-24T13:36:27.747Z,340
2019-01-24T13:37:28.326Z,340
2019-01-24T13:38:28.894Z,344
2019-01-24T13:39:29.461Z,340
2019-01-24T13:40:30.041Z,332
2019-01-24T13:41:30.607Z,328
2019-01-24T13:42:31.176Z,320
2019-01-24T13:43:31.754Z,320
2019-01-24T13:44:32.322Z,316
2019-01-24T13:45:32.889Z,320
2019-01-24T13:46:33.457Z,316
2019-01-24T13:47:34.023Z,324
2019-01-24T13:48:34.590Z,328
2019-01-24T13:49:35.159Z,332
2019-01-24T13:50:35.726Z,332
2019-01-24T13:51:36.292Z,328
2019-01-24T13:52:36.859Z,324
2019-01-24T13:53:37.428Z,316
2019-01-24T13:54:37.995Z,312
2019-01-24T13:55:39.490Z,308
2019-01-24T13:56:40.122Z,308
2019-01-24T13:57:40.689Z,312
2019-01-24T13:58:41.256Z,312
2019-01-24T13:59:41.821Z,312
2019-01-24T14:00:42.388Z,316
2019-01-24T14:01:42.959Z,316
2019-01-24T14:02:43.523Z,316
2019-01-24T14:03:44.088Z,312
2019-01-24T14:04:44.656Z,308
2019-01-24T14:05:45.221Z,304
2019-01-24T14:06:45.790Z,300
2019-01-24T14:07:46.369Z,292
2019-01-24T14:08:46.935Z,288
2019-01-24T14:09:47.504Z,280
2019-01-24T14:10:48.071Z,268
2019-01-24T14:11:48.641Z,260
2019-01-24T14:12:49.205Z,248
2019-01-24T14:13:49.872Z,240
2019-01-24T14:14:50.440Z,232
2019-01-24T14:15:51.009Z,232
2019-01-24T14:16:51.575Z,224
2019-01-24T14:17:52.141Z,224
2019-01-24T14:18:52.710Z,220
2019-01-24T14:19:53.288Z,216
2019-01-24T14:20:53.857Z,216
2019-01-24T14:21:55.043Z,208
2019-01-24T14:22:55.564Z,204
2019-01-24T14:23:56.129Z,200
2019-01-24T14:24:56.694Z,200
2019-01-24T14:25:57.261Z,204
2019-01-24T14:26:57.830Z,200